TAF and METAR

Decoding for American and Canadian METARs and TAFs is not fully implemented.

Could not understand the following METAR

CYWE 010900Z AUTO 05006KT 9SM CLR M35/M39 A2992 RMK ICG SLP200
No TAF available for Wekweètì Airport